Time;durP1;ratioP1;P1;durP2;ratioP2;P2;SDS_P1;SDS_P2;PMS_P1;PMS_P2;Temp;Humidity;BMP_temperature;BMP_pressure;BME280_temperature;BME280_humidity;BME280_pressure;Samples;Min_cycle;Max_cycle;Signal;HPM_P1;HPM_P2
2024/02/17 00:02:18;;;;;;;53.60;29.90;;;128.30;2252.80;;;;;;4839737;29;20477;-75
2024/02/17 00:04:44;;;;;;;102.60;56.60;;;128.30;2252.80;;;;;;4835949;29;20022;-79
2024/02/17 00:07:10;;;;;;;33.97;21.65;;;128.20;2252.80;;;;;;4839513;29;20046;-78
2024/02/17 00:09:36;;;;;;;51.72;29.42;;;128.30;2252.80;;;;;;4823202;29;20034;-76
2024/02/17 00:12:02;;;;;;;32.58;21.83;;;128.20;2252.80;;;;;;4839941;29;20029;-76
2024/02/17 00:14:27;;;;;;;97.65;60.97;;;128.00;2252.80;;;;;;4839320;29;20050;-76
2024/02/17 00:16:53;;;;;;;82.45;50.40;;;103.30;2227.20;;;;;;4839643;29;20026;-75
2024/02/17 00:19:19;;;;;;;79.10;49.30;;;128.20;2252.80;;;;;;4839120;29;20090;-76
2024/02/17 00:21:45;;;;;;;41.67;26.95;;;103.20;2227.20;;;;;;4839711;29;20034;-80
2024/02/17 00:24:11;;;;;;;85.85;49.30;;;103.30;2227.20;;;;;;4839110;29;20131;-79
2024/02/17 00:26:39;;;;;;;48.15;29.77;;;103.30;2227.20;;;;;;4839305;29;20061;-77
2024/02/17 00:29:05;;;;;;;51.25;29.90;;;103.30;2227.20;;;;;;4839411;29;20063;-81
2024/02/17 00:31:31;;;;;;;67.53;40.00;;;103.30;2227.20;;;;;;4839319;29;20022;-77
2024/02/17 00:33:56;;;;;;;44.50;25.70;;;103.30;2227.20;;;;;;4838965;29;20272;-76
2024/02/17 00:36:22;;;;;;;51.42;35.15;;;103.30;2227.20;;;;;;4839630;29;20034;-76
2024/02/17 00:38:48;;;;;;;86.55;45.78;;;103.30;2227.20;;;;;;4839022;29;20044;-76
2024/02/17 00:41:14;;;;;;;109.00;57.58;;;103.30;2227.20;;;;;;4839436;29;20040;-75
2024/02/17 00:43:40;;;;;;;174.70;93.38;;;128.00;2252.80;;;;;;4838781;29;20034;-75
2024/02/17 00:46:05;;;;;;;111.97;54.33;;;128.00;2252.80;;;;;;4839195;29;20030;-75
2024/02/17 00:48:32;;;;;;;161.48;83.10;;;128.10;2252.80;;;;;;4838896;29;20038;-76
2024/02/17 00:50:58;;;;;;;155.75;74.40;;;128.00;2252.80;;;;;;4838784;29;20065;-74
2024/02/17 00:53:24;;;;;;;161.73;84.30;;;128.00;2252.80;;;;;;4839019;29;20753;-67
2024/02/17 00:55:50;;;;;;;34.85;21.52;;;128.10;2252.80;;;;;;4839030;29;20042;-68
2024/02/17 00:58:15;;;;;;;20.65;11.35;;;103.30;2227.20;;;;;;4839157;29;20384;-70
2024/02/17 01:00:41;;;;;;;89.75;46.35;;;103.10;2227.20;;;;;;4837845;29;20480;-69
2024/02/17 01:03:10;;;;;;;40.38;18.45;;;103.20;2227.20;;;;;;4838836;29;20469;-70
2024/02/17 01:05:38;;;;;;;46.35;25.40;;;103.20;2227.20;;;;;;4837498;29;20520;-69
2024/02/17 01:08:05;;;;;;;38.53;21.48;;;103.00;2227.20;;;;;;4838318;29;20049;-69
2024/02/17 01:10:31;;;;;;;14.95;9.48;;;102.90;2227.20;;;;;;4837640;29;20029;-69
2024/02/17 01:12:57;;;;;;;20.65;10.35;;;102.80;2227.20;;;;;;4838246;29;20035;-69
2024/02/17 01:15:22;;;;;;;17.10;9.88;;;102.80;2227.20;;;;;;4838674;29;20069;-68
2024/02/17 01:17:48;;;;;;;20.13;12.23;;;102.80;2227.20;;;;;;4838332;29;20022;-68
2024/02/17 01:20:14;;;;;;;25.08;13.95;;;102.90;2227.20;;;;;;4838634;29;20034;-68
2024/02/17 01:22:40;;;;;;;23.90;13.95;;;102.60;2227.20;;;;;;4832759;29;20036;-68
2024/02/17 01:25:07;;;;;;;70.15;33.67;;;102.50;2227.20;;;;;;4831881;29;20069;-68
2024/02/17 01:27:33;;;;;;;41.45;21.63;;;102.60;2227.20;;;;;;4829497;29;20026;-67
2024/02/17 01:29:59;;;;;;;27.45;16.25;;;102.70;2227.20;;;;;;4829506;29;20037;-68
2024/02/17 01:32:25;;;;;;;18.33;11.00;;;102.80;2227.20;;;;;;4838468;29;20668;-71
2024/02/17 01:34:50;;;;;;;14.40;9.35;;;102.80;2227.20;;;;;;4838217;29;20080;-67
2024/02/17 01:37:18;;;;;;;23.13;14.40;;;102.70;2227.20;;;;;;4838439;29;20040;-69
2024/02/17 01:39:44;;;;;;;19.05;12.20;;;102.60;2227.20;;;;;;4832513;29;20362;-70
2024/02/17 01:42:11;;;;;;;21.13;12.50;;;102.40;2227.20;;;;;;4835679;29;20042;-71
2024/02/17 01:44:37;;;;;;;23.13;19.20;;;102.50;2227.20;;;;;;4837979;29;20034;-69
2024/02/17 01:47:04;;;;;;;16.52;10.93;;;102.50;2227.20;;;;;;4831381;29;20043;-68
2024/02/17 01:49:32;;;;;;;16.17;9.65;;;102.50;2227.20;;;;;;4827496;29;20030;-69
2024/02/17 01:52:02;;;;;;;16.55;10.85;;;102.50;2227.20;;;;;;4830650;29;20400;-68
2024/02/17 01:54:29;;;;;;;19.33;11.15;;;102.50;2227.20;;;;;;4837599;29;20515;-69
2024/02/17 01:56:58;;;;;;;18.42;12.02;;;102.60;2227.20;;;;;;4848319;29;20061;-70
2024/02/17 01:59:24;;;;;;;14.73;10.20;;;102.70;2227.20;;;;;;4840152;29;20054;-69
2024/02/17 02:01:51;;;;;;;14.52;9.90;;;102.80;2227.20;;;;;;4837839;29;20450;-70
2024/02/17 02:04:17;;;;;;;14.68;10.07;;;102.80;2227.20;;;;;;4837675;29;20101;-69
2024/02/17 02:06:43;;;;;;;15.73;9.18;;;102.60;2227.20;;;;;;4838338;29;20037;-70
2024/02/17 02:09:09;;;;;;;14.70;9.75;;;102.50;2227.20;;;;;;4838189;29;20034;-69
2024/02/17 02:11:35;;;;;;;18.60;9.63;;;102.60;2227.20;;;;;;4837904;29;20030;-71
2024/02/17 02:14:15;;;;;;;21.50;15.43;;;102.60;2227.20;;;;;;4837693;29;20117;-71
2024/02/17 02:16:40;;;;;;;17.00;11.52;;;102.60;2227.20;;;;;;4837734;29;20041;-71
2024/02/17 02:19:06;;;;;;;19.73;12.18;;;102.70;2227.20;;;;;;4837898;29;20030;-70
2024/02/17 02:21:35;;;;;;;23.75;15.45;;;102.70;2227.20;;;;;;4839719;29;20036;-70
2024/02/17 02:24:00;;;;;;;17.05;11.75;;;102.70;2227.20;;;;;;4841293;29;20038;-71
2024/02/17 02:26:26;;;;;;;23.55;13.88;;;102.80;2227.20;;;;;;4841793;29;20598;-71
2024/02/17 02:28:52;;;;;;;26.30;16.17;;;102.70;2227.20;;;;;;4841565;29;20112;-72
2024/02/17 02:31:18;;;;;;;23.67;12.98;;;102.70;2227.20;;;;;;4841337;29;20457;-71
2024/02/17 02:33:43;;;;;;;32.20;21.23;;;102.60;2227.20;;;;;;4841536;29;20067;-70
2024/02/17 02:36:09;;;;;;;17.60;11.27;;;102.60;2227.20;;;;;;4844343;29;20029;-70
2024/02/17 02:38:35;;;;;;;14.85;9.35;;;102.60;2227.20;;;;;;4847372;29;20046;-69
2024/02/17 02:41:01;;;;;;;17.20;11.68;;;102.60;2227.20;;;;;;4841225;29;20030;-71
2024/02/17 02:43:26;;;;;;;24.20;16.45;;;102.60;2227.20;;;;;;4841319;29;20055;-72
2024/02/17 02:45:52;;;;;;;23.23;14.88;;;102.60;2227.20;;;;;;4841372;29;20037;-75
2024/02/17 02:48:18;;;;;;;20.27;14.10;;;102.60;2227.20;;;;;;4841260;29;20030;-70
2024/02/17 02:50:44;;;;;;;21.27;13.57;;;102.80;2227.20;;;;;;4841050;29;20122;-70
2024/02/17 02:53:10;;;;;;;19.25;12.30;;;102.70;2227.20;;;;;;4840782;29;20038;-73
2024/02/17 02:55:36;;;;;;;25.10;15.48;;;102.60;2227.20;;;;;;4840949;29;20048;-71
2024/02/17 02:58:01;;;;;;;26.90;14.80;;;102.70;2227.20;;;;;;4824772;29;20029;-72
2024/02/17 03:00:27;;;;;;;86.40;45.15;;;102.70;2227.20;;;;;;4840869;29;20420;-69
2024/02/17 03:02:53;;;;;;;33.47;20.40;;;102.60;2227.20;;;;;;4841092;29;20026;-70
2024/02/17 03:05:19;;;;;;;20.85;12.68;;;102.60;2227.20;;;;;;4840994;29;20029;-69
2024/02/17 03:07:45;;;;;;;21.25;14.30;;;102.60;2227.20;;;;;;4840768;29;20484;-77
2024/02/17 03:10:11;;;;;;;15.55;9.48;;;102.60;2227.20;;;;;;4840668;29;20022;-78
2024/02/17 03:12:36;;;;;;;18.90;12.27;;;102.60;2227.20;;;;;;4841037;29;20034;-74
2024/02/17 03:15:02;;;;;;;18.00;13.40;;;102.60;2227.20;;;;;;4828306;29;20370;-78
2024/02/17 03:17:28;;;;;;;15.77;10.20;;;102.60;2227.20;;;;;;4840523;29;20029;-70
2024/02/17 03:19:54;;;;;;;14.30;9.10;;;102.50;2227.20;;;;;;4840762;29;20037;-71
2024/02/17 03:22:20;;;;;;;13.52;9.00;;;102.50;2227.20;;;;;;4840584;29;20025;-70
2024/02/17 03:24:46;;;;;;;12.60;7.60;;;102.40;2227.20;;;;;;4823769;29;20544;-70
2024/02/17 03:27:13;;;;;;;17.63;10.38;;;102.40;2227.20;;;;;;4840671;29;20029;-71
2024/02/17 03:29:38;;;;;;;29.90;16.95;;;102.50;2227.20;;;;;;4840393;29;20030;-70
2024/02/17 03:32:05;;;;;;;33.78;15.95;;;102.50;2227.20;;;;;;4839864;29;20381;-70
2024/02/17 03:34:34;;;;;;;24.20;14.43;;;102.60;2227.20;;;;;;4839882;29;20034;-74
2024/02/17 03:37:00;;;;;;;38.53;23.25;;;102.60;2227.20;;;;;;4840280;29;20042;-70
2024/02/17 03:39:26;;;;;;;43.85;24.95;;;102.60;2227.20;;;;;;4840278;29;20034;-69
2024/02/17 03:41:51;;;;;;;11.48;9.25;;;102.60;2227.20;;;;;;4840767;29;20061;-70
2024/02/17 03:44:18;;;;;;;13.38;9.32;;;102.50;2227.20;;;;;;4840029;29;20029;-70
2024/02/17 03:46:44;;;;;;;11.88;8.10;;;102.40;2227.20;;;;;;4840147;29;20026;-70
2024/02/17 03:49:10;;;;;;;12.55;8.45;;;102.40;2227.20;;;;;;4840041;29;20397;-71
2024/02/17 03:51:36;;;;;;;13.88;7.28;;;77.70;2227.20;;;;;;4839954;29;20034;-71
2024/02/17 03:54:03;;;;;;;13.00;7.97;;;77.70;2227.20;;;;;;4839424;29;20054;-70
2024/02/17 03:56:29;;;;;;;13.80;9.80;;;77.70;2227.20;;;;;;4839719;29;20082;-70
2024/02/17 03:58:54;;;;;;;16.30;9.48;;;77.70;2227.20;;;;;;4839878;29;20496;-70
2024/02/17 04:01:21;;;;;;;12.85;8.65;;;102.40;2227.20;;;;;;4840081;29;20026;-70
2024/02/17 04:03:47;;;;;;;11.73;7.07;;;102.40;2227.20;;;;;;4839696;29;20030;-68
2024/02/17 04:06:13;;;;;;;64.90;44.35;;;102.40;2227.20;;;;;;4840009;29;20062;-69
2024/02/17 04:08:39;;;;;;;14.68;8.43;;;102.40;2227.20;;;;;;4839420;29;20030;-70
2024/02/17 04:11:07;;;;;;;10.80;7.13;;;102.40;2227.20;;;;;;4839793;29;20057;-74
2024/02/17 04:13:32;;;;;;;12.45;7.72;;;102.40;2227.20;;;;;;4840006;29;20025;-70
2024/02/17 04:15:58;;;;;;;15.68;10.57;;;77.70;2227.20;;;;;;4839622;29;20038;-69
2024/02/17 04:18:24;;;;;;;22.20;15.18;;;77.60;2227.20;;;;;;4839696;29;20062;-69
2024/02/17 04:20:50;;;;;;;20.08;12.57;;;77.60;2227.20;;;;;;4839803;29;20063;-69
2024/02/17 04:23:15;;;;;;;27.73;19.10;;;77.60;2227.20;;;;;;4839803;29;20030;-68
2024/02/17 04:25:44;;;;;;;46.95;27.02;;;77.70;2227.20;;;;;;4839549;29;20034;-71
2024/02/17 04:28:10;;;;;;;48.97;27.20;;;77.70;2227.20;;;;;;4839831;29;20034;-70
2024/02/17 04:30:36;;;;;;;43.80;24.92;;;77.70;2227.20;;;;;;4839432;29;20061;-70
2024/02/17 04:33:01;;;;;;;32.55;25.35;;;77.70;2227.20;;;;;;4838590;29;20038;-69
2024/02/17 04:35:27;;;;;;;37.13;26.55;;;77.70;2227.20;;;;;;4839500;29;20042;-72
2024/02/17 04:37:53;;;;;;;34.28;22.55;;;77.60;2227.20;;;;;;4839424;29;20036;-71
2024/02/17 04:40:19;;;;;;;33.75;21.98;;;77.70;2227.20;;;;;;4839275;29;20062;-69
2024/02/17 04:42:45;;;;;;;27.00;17.90;;;77.70;2227.20;;;;;;4839877;29;20070;-69
2024/02/17 04:45:11;;;;;;;30.17;19.77;;;77.70;2227.20;;;;;;4839152;29;20036;-70
2024/02/17 04:47:38;;;;;;;26.23;16.52;;;77.70;2227.20;;;;;;4839275;29;20091;-69
2024/02/17 04:50:04;;;;;;;21.83;13.50;;;77.60;2227.20;;;;;;4839633;29;20105;-69
2024/02/17 04:52:30;;;;;;;14.07;7.38;;;77.60;2227.20;;;;;;4839321;29;20365;-71
2024/02/17 04:54:55;;;;;;;13.27;7.68;;;77.60;2227.20;;;;;;4839012;29;20198;-70
2024/02/17 04:57:21;;;;;;;13.88;7.47;;;77.70;2227.20;;;;;;4850893;29;20097;-69
2024/02/17 04:59:47;;;;;;;11.27;7.43;;;77.70;2227.20;;;;;;4838496;29;20045;-71
2024/02/17 05:02:13;;;;;;;21.13;16.63;;;77.70;2227.20;;;;;;4839112;29;20121;-72
2024/02/17 05:04:39;;;;;;;16.70;10.35;;;77.60;2227.20;;;;;;4838778;29;20061;-72
2024/02/17 05:07:05;;;;;;;39.08;35.45;;;77.60;2227.20;;;;;;4833399;29;20029;-70
2024/02/17 05:09:32;;;;;;;34.90;31.58;;;77.70;2227.20;;;;;;4844058;29;20022;-70
2024/02/17 05:11:58;;;;;;;20.98;17.95;;;77.70;2227.20;;;;;;4838689;29;20034;-72
2024/02/17 05:14:25;;;;;;;21.13;15.35;;;77.70;2227.20;;;;;;4838929;29;20037;-71
2024/02/17 05:16:51;;;;;;;18.88;11.93;;;77.70;2227.20;;;;;;4838965;29;20361;-69
2024/02/17 05:19:17;;;;;;;21.70;15.50;;;102.40;2227.20;;;;;;4837642;29;20632;-71
2024/02/17 05:21:43;;;;;;;16.63;11.93;;;102.40;2227.20;;;;;;4837630;29;20119;-70
2024/02/17 05:24:10;;;;;;;22.08;14.05;;;77.70;2227.20;;;;;;4837109;29;20041;-70
2024/02/17 05:26:39;;;;;;;25.48;16.42;;;77.70;2227.20;;;;;;4838622;29;20037;-70
2024/02/17 05:29:06;;;;;;;21.20;11.27;;;77.70;2227.20;;;;;;4838394;29;20044;-69
2024/02/17 05:31:33;;;;;;;16.52;10.15;;;77.70;2227.20;;;;;;4837583;29;20130;-71
2024/02/17 05:33:59;;;;;;;21.85;12.90;;;77.70;2227.20;;;;;;4836975;29;20401;-71
2024/02/17 05:36:28;;;;;;;19.73;12.20;;;77.70;2227.20;;;;;;4838350;29;20495;-73
2024/02/17 05:38:55;;;;;;;21.98;13.07;;;77.70;2227.20;;;;;;4837371;29;20033;-71
2024/02/17 05:41:21;;;;;;;26.92;15.32;;;77.60;2227.20;;;;;;4837931;29;20029;-71
2024/02/17 05:43:47;;;;;;;41.42;21.38;;;77.70;2227.20;;;;;;4836736;29;20030;-71
2024/02/17 05:46:12;;;;;;;18.85;10.65;;;77.60;2227.20;;;;;;4843368;29;20070;-70
2024/02/17 05:48:38;;;;;;;13.77;9.90;;;77.60;2227.20;;;;;;4837737;29;20068;-69
2024/02/17 05:51:04;;;;;;;17.38;10.45;;;77.50;2227.20;;;;;;4826439;29;20094;-70
2024/02/17 05:53:30;;;;;;;11.10;7.95;;;77.30;2227.20;;;;;;4820983;29;20121;-68
2024/02/17 05:55:56;;;;;;;13.93;8.90;;;77.30;2227.20;;;;;;4836940;29;20038;-70
2024/02/17 05:58:22;;;;;;;12.77;7.35;;;77.40;2227.20;;;;;;4833396;29;20072;-70
2024/02/17 06:00:48;;;;;;;13.57;8.13;;;77.60;2227.20;;;;;;4824489;29;20553;-69
2024/02/17 06:03:15;;;;;;;13.57;7.90;;;77.60;2227.20;;;;;;4837648;29;20030;-68
2024/02/17 06:05:41;;;;;;;15.75;7.18;;;77.70;2227.20;;;;;;4837169;29;20038;-70
2024/02/17 06:08:07;;;;;;;16.13;10.70;;;102.50;2227.20;;;;;;4837516;29;20042;-69
2024/02/17 06:10:33;;;;;;;15.63;9.50;;;102.50;2227.20;;;;;;4837580;29;20054;-70
2024/02/17 06:12:58;;;;;;;14.75;9.15;;;102.60;2227.20;;;;;;4837377;29;20461;-70
2024/02/17 06:15:24;;;;;;;19.42;9.50;;;102.70;2227.20;;;;;;4837589;29;20038;-71
2024/02/17 06:21:10;;;;;;;21.08;15.05;;;102.60;2227.20;;;;;;4837528;29;20034;-72
2024/02/17 06:23:24;;;;;;;13.20;8.75;;;102.80;2227.20;;;;;;4837865;29;20033;-71
2024/02/17 06:25:50;;;;;;;16.15;9.10;;;102.80;2227.20;;;;;;4837233;29;20033;-70
2024/02/17 06:28:15;;;;;;;18.58;9.13;;;102.80;2227.20;;;;;;4837562;29;20030;-71
2024/02/17 06:30:41;;;;;;;16.15;9.43;;;102.90;2227.20;;;;;;4836886;29;20038;-71
2024/02/17 06:33:07;;;;;;;13.50;7.68;;;102.90;2227.20;;;;;;4837587;29;20034;-70
2024/02/17 06:35:32;;;;;;;15.63;8.45;;;102.90;2227.20;;;;;;4837465;29;20034;-71
2024/02/17 06:37:58;;;;;;;12.50;7.88;;;103.00;2227.20;;;;;;4837276;29;20026;-71
2024/02/17 06:40:24;;;;;;;26.13;13.20;;;103.00;2227.20;;;;;;4837409;29;20033;-69
2024/02/17 06:42:50;;;;;;;15.18;8.45;;;103.10;2227.20;;;;;;4837215;29;20029;-71
2024/02/17 06:45:16;;;;;;;25.98;16.55;;;103.20;2227.20;;;;;;4849579;29;20548;-70
2024/02/17 06:47:46;;;;;;;44.25;28.15;;;103.20;2227.20;;;;;;4824192;29;20481;-74
2024/02/17 06:50:12;;;;;;;18.80;12.35;;;103.30;2227.20;;;;;;4827610;29;20397;-69
2024/02/17 06:52:38;;;;;;;13.35;8.40;;;103.30;2227.20;;;;;;4827875;29;20031;-69
2024/02/17 06:55:05;;;;;;;11.55;7.72;;;128.00;2252.80;;;;;;4828052;29;20608;-70
2024/02/17 06:57:30;;;;;;;17.17;10.93;;;128.10;2252.80;;;;;;4835952;29;20466;-70
2024/02/17 06:59:56;;;;;;;13.55;8.50;;;128.20;2252.80;;;;;;4836207;29;20034;-74
2024/02/17 07:02:22;;;;;;;12.20;7.85;;;128.30;2252.80;;;;;;4820715;29;20022;-70
2024/02/17 07:04:49;;;;;;;62.15;41.17;;;128.40;2252.80;;;;;;4837433;29;20034;-72
2024/02/17 07:07:15;;;;;;;73.20;47.15;;;128.40;2252.80;;;;;;4838555;29;20022;-71
2024/02/17 07:09:41;;;;;;;93.05;62.42;;;128.40;2252.80;;;;;;4840043;29;20083;-72
2024/02/17 07:12:07;;;;;;;108.00;67.05;;;128.30;2252.80;;;;;;4840361;29;20445;-70
2024/02/17 07:14:32;;;;;;;91.38;60.55;;;128.30;2252.80;;;;;;4840231;29;20038;-71
2024/02/17 07:16:59;;;;;;;67.07;41.80;;;128.50;2252.80;;;;;;4839922;29;20030;-71
2024/02/17 07:19:25;;;;;;;70.30;40.58;;;128.60;2252.80;;;;;;4840332;29;20097;-73
2024/02/17 07:21:52;;;;;;;52.47;31.88;;;128.70;2252.80;;;;;;4840162;29;20030;-70
2024/02/17 07:24:17;;;;;;;27.73;18.10;;;128.80;2252.80;;;;;;4839858;29;20068;-73
2024/02/17 07:26:44;;;;;;;23.65;13.73;;;128.90;2252.80;;;;;;4840343;29;20058;-70
2024/02/17 07:29:11;;;;;;;20.50;14.48;;;128.90;2252.80;;;;;;4839697;29;20037;-69
2024/02/17 07:31:43;;;;;;;24.65;15.95;;;153.60;2252.80;;;;;;4840076;29;20101;-72
2024/02/17 07:34:11;;;;;;;26.63;18.15;;;153.70;2252.80;;;;;;4828443;29;20042;-68
2024/02/17 07:36:37;;;;;;;22.27;12.85;;;153.80;2252.80;;;;;;4823896;29;20054;-70
2024/02/17 07:39:04;;;;;;;16.80;9.75;;;153.70;2252.80;;;;;;4825161;29;20026;-69
2024/02/17 07:41:29;;;;;;;16.88;8.63;;;153.90;2252.80;;;;;;4831140;29;20045;-69
2024/02/17 07:43:55;;;;;;;18.83;9.65;;;154.10;2252.80;;;;;;4832499;29;20339;-69
2024/02/17 07:46:21;;;;;;;16.70;11.18;;;154.50;2252.80;;;;;;4832381;29;20065;-73
2024/02/17 07:48:47;;;;;;;18.67;14.45;;;230.90;2252.80;;;;;;4832017;29;20033;-70
2024/02/17 07:51:13;;;;;;;25.83;18.27;;;307.30;2304.00;;;;;;4838488;29;20034;-70
2024/02/17 07:53:40;;;;;;;79.55;54.72;;;358.40;2124.80;;;;;;4839097;29;20085;-70
2024/02/17 07:56:06;;;;;;;269.92;174.13;;;384.60;1945.60;;;;;;4839587;29;20042;-70
2024/02/17 07:58:32;;;;;;;218.40;157.73;;;409.60;1894.40;;;;;;4845984;29;20492;-70
2024/02/17 08:00:58;;;;;;;216.68;166.85;;;410.30;1843.20;;;;;;4842970;29;20039;-72
2024/02/17 08:03:27;;;;;;;182.20;146.40;;;435.40;1766.40;;;;;;4839603;29;20049;-70
2024/02/17 08:05:54;;;;;;;171.20;140.85;;;435.70;1766.40;;;;;;4839501;29;20030;-72
2024/02/17 08:08:20;;;;;;;133.80;114.20;;;461.30;1715.20;;;;;;4838461;29;20446;-71
2024/02/17 08:10:46;;;;;;;143.38;126.15;;;487.20;1612.80;;;;;;4838752;29;20077;-71
2024/02/17 08:13:12;;;;;;;113.45;93.22;;;537.80;1561.60;;;;;;4838696;29;20030;-71
2024/02/17 08:15:38;;;;;;;140.85;116.47;;;563.20;1510.40;;;;;;4839067;29;20478;-72
2024/02/17 08:18:05;;;;;;;111.22;95.38;;;563.60;1484.80;;;;;;4836633;29;20378;-72
2024/02/17 08:20:31;;;;;;;150.68;134.13;;;563.70;1459.20;;;;;;4839093;29;20025;-72
2024/02/17 08:22:57;;;;;;;162.10;142.88;;;538.30;1484.80;;;;;;4851489;29;20096;-73
2024/02/17 08:25:24;;;;;;;171.98;153.60;;;538.20;1484.80;;;;;;4839207;29;20045;-73
2024/02/17 08:27:50;;;;;;;154.77;138.80;;;563.20;1484.80;;;;;;4839137;29;20079;-72
2024/02/17 08:30:15;;;;;;;145.13;129.63;;;538.50;1459.20;;;;;;4841910;29;20034;-74
2024/02/17 08:32:41;;;;;;;121.93;108.82;;;538.00;1484.80;;;;;;4839112;29;20094;-72
2024/02/17 08:35:07;;;;;;;200.20;147.15;;;564.10;1433.60;;;;;;4838964;29;20046;-73
2024/02/17 08:37:33;;;;;;;71.80;63.95;;;563.60;1433.60;;;;;;4838782;29;20030;-73
2024/02/17 08:39:59;;;;;;;69.35;53.78;;;589.40;1382.40;;;;;;4838222;29;20440;-75
2024/02/17 08:42:25;;;;;;;79.43;62.42;;;589.70;1356.80;;;;;;4838968;29;20359;-71
2024/02/17 08:44:53;;;;;;;70.75;54.58;;;614.40;1356.80;;;;;;4838948;29;20033;-73
2024/02/17 08:47:21;;;;;;;36.78;28.42;;;615.10;1331.20;;;;;;4838472;29;20449;-77
2024/02/17 08:49:47;;;;;;;20.73;16.38;;;640.00;1305.60;;;;;;4839089;29;20488;-75
2024/02/17 08:52:13;;;;;;;39.35;27.90;;;614.90;1305.60;;;;;;4838712;29;20050;-72
2024/02/17 08:54:38;;;;;;;30.83;23.27;;;665.60;1331.20;;;;;;4826945;29;20062;-71
2024/02/17 08:57:04;;;;;;;44.03;34.25;;;665.90;1254.40;;;;;;4837599;29;20041;-70
2024/02/17 08:59:31;;;;;;;18.65;16.55;;;666.30;1254.40;;;;;;4838049;29;20041;-71
2024/02/17 09:01:57;;;;;;;19.08;14.25;;;666.10;1228.80;;;;;;4838899;29;20623;-73
2024/02/17 09:04:22;;;;;;;39.83;29.77;;;640.50;1228.80;;;;;;4839487;29;20527;-72
2024/02/17 09:06:48;;;;;;;25.00;20.60;;;640.60;1254.40;;;;;;4851288;29;20393;-72
2024/02/17 09:09:14;;;;;;;60.70;47.05;;;;;;;;;;4839173;29;20469;-73
2024/02/17 09:11:45;;;;;;;52.17;46.13;;;;;;;;;;4838122;29;20037;-71
2024/02/17 09:14:11;;;;;;;56.80;50.80;;;;;;;;;;4836315;29;20121;-72
2024/02/17 09:16:36;;;;;;;61.00;50.28;;;614.50;1305.60;;;;;;4838250;29;20030;-72
2024/02/17 09:19:15;;;;;;;86.72;69.07;;;;;;;;;;4838533;29;20500;-70
2024/02/17 09:21:41;;;;;;;76.95;66.32;;;564.10;1382.40;;;;;;4829995;29;20085;-71
2024/02/17 09:24:07;;;;;;;69.35;61.67;;;563.70;1408.00;;;;;;4838813;29;20041;-72
2024/02/17 09:26:33;;;;;;;65.38;58.25;;;538.50;1433.60;;;;;;4838335;29;20030;-71
2024/02/17 09:28:58;;;;;;;68.72;59.38;;;538.30;1433.60;;;;;;4838318;29;20037;-71
2024/02/17 09:31:24;;;;;;;68.95;61.47;;;538.00;1459.20;;;;;;4837626;29;20061;-71
2024/02/17 09:33:50;;;;;;;82.18;73.20;;;512.80;1484.80;;;;;;4838434;29;20113;-70
2024/02/17 09:36:15;;;;;;;66.43;57.05;;;512.90;1459.20;;;;;;4840102;29;20022;-71
2024/02/17 09:38:41;;;;;;;65.30;54.55;;;537.80;1484.80;;;;;;4845668;29;20026;-71
2024/02/17 09:41:07;;;;;;;62.60;53.85;;;537.70;1459.20;;;;;;4838115;29;20370;-71
2024/02/17 09:43:33;;;;;;;60.30;49.13;;;486.60;1536.00;;;;;;4837703;29;20060;-70
2024/02/17 09:45:59;;;;;;;57.72;49.15;;;461.10;1612.80;;;;;;4833794;29;20066;-71
2024/02/17 09:48:25;;;;;;;74.85;52.70;;;435.80;1638.40;;;;;;4838104;29;20026;-75
2024/02/17 09:50:53;;;;;;;60.53;46.58;;;435.90;1638.40;;;;;;4838097;29;20037;-72
2024/02/17 09:53:20;;;;;;;53.00;40.65;;;435.50;1638.40;;;;;;4837896;29;20060;-70
2024/02/17 09:55:48;;;;;;;52.75;39.03;;;410.20;1664.00;;;;;;4836778;29;20049;-70
2024/02/17 09:58:14;;;;;;;51.25;37.97;;;410.20;1689.60;;;;;;4835160;29;20489;-71
2024/02/17 10:00:39;;;;;;;59.38;40.80;;;409.90;1689.60;;;;;;4832374;29;20042;-71
2024/02/17 10:03:06;;;;;;;57.38;39.85;;;409.80;1715.20;;;;;;4838472;29;20109;-74
2024/02/17 10:05:32;;;;;;;49.70;36.90;;;384.90;1715.20;;;;;;4837992;29;20118;-74
2024/02/17 10:07:58;;;;;;;41.03;31.85;;;384.90;1715.20;;;;;;4837996;29;20100;-74
2024/02/17 10:10:24;;;;;;;39.88;32.60;;;384.70;1740.80;;;;;;4837742;29;20041;-75
2024/02/17 10:12:55;;;;;;;45.95;31.88;;;384.60;1740.80;;;;;;4835782;29;20116;-74
2024/02/17 10:15:22;;;;;;;49.28;33.53;;;384.50;1740.80;;;;;;4830929;29;20052;-75
2024/02/17 10:17:50;;;;;;;48.88;33.83;;;384.90;1740.80;;;;;;4837791;29;20125;-73
2024/02/17 10:20:16;;;;;;;43.55;30.02;;;409.60;1766.40;;;;;;4838100;29;20487;-76
2024/02/17 10:22:45;;;;;;;40.88;31.95;;;384.90;1766.40;;;;;;4837070;29;20113;-75
2024/02/17 10:25:11;;;;;;;37.38;29.40;;;384.70;1766.40;;;;;;4837863;29;20061;-75
2024/02/17 10:27:39;;;;;;;38.22;30.83;;;409.90;1766.40;;;;;;4837586;29;20026;-75
2024/02/17 10:30:12;;;;;;;32.88;25.02;;;409.90;1766.40;;;;;;4821522;29;20037;-77
2024/02/17 10:32:39;;;;;;;35.80;28.90;;;409.80;1740.80;;;;;;4837571;29;20034;-79
2024/02/17 10:35:07;;;;;;;41.15;30.60;;;384.80;1740.80;;;;;;4837549;29;20046;-76
2024/02/17 10:37:35;;;;;;;42.33;31.33;;;384.90;1740.80;;;;;;4836503;29;20033;-74
2024/02/17 10:40:03;;;;;;;43.85;34.20;;;384.90;1740.80;;;;;;4837680;29;20029;-74
2024/02/17 10:42:30;;;;;;;44.30;33.03;;;384.90;1740.80;;;;;;4839350;29;20329;-74
2024/02/17 10:45:00;;;;;;;48.22;36.08;;;384.70;1766.40;;;;;;4841200;29;20045;-75
2024/02/17 10:47:36;;;;;;;47.85;34.92;;;384.90;1766.40;;;;;;4841285;29;20097;-72
2024/02/17 10:50:16;;;;;;;46.50;36.47;;;384.80;1766.40;;;;;;4841204;29;20037;-73
2024/02/17 10:52:43;;;;;;;49.25;36.38;;;384.90;1766.40;;;;;;4840768;29;20030;-75
2024/02/17 10:55:14;;;;;;;48.38;36.25;;;409.60;1792.00;;;;;;4840867;29;20062;-73
2024/02/17 10:57:52;;;;;;;45.95;33.92;;;409.70;1792.00;;;;;;4828894;29;20026;-73
2024/02/17 11:00:19;;;;;;;35.88;26.33;;;409.80;1766.40;;;;;;4840803;29;20026;-73
2024/02/17 11:02:50;;;;;;;32.85;23.73;;;410.10;1766.40;;;;;;4841019;29;20022;-73
2024/02/17 11:05:18;;;;;;;35.63;23.05;;;409.70;1792.00;;;;;;4841068;29;20049;-73
2024/02/17 11:07:45;;;;;;;31.90;23.38;;;384.90;1766.40;;;;;;4841212;29;20026;-72
2024/02/17 11:10:13;;;;;;;33.53;26.02;;;409.70;1792.00;;;;;;4834248;29;20042;-73
2024/02/17 11:12:39;;;;;;;27.35;21.55;;;410.00;1792.00;;;;;;4838594;29;20030;-74
2024/02/17 11:15:10;;;;;;;38.58;29.90;;;409.60;1766.40;;;;;;4841063;29;20042;-72
2024/02/17 11:17:44;;;;;;;35.03;26.33;;;409.60;1792.00;;;;;;4841140;29;20029;-73
2024/02/17 11:20:12;;;;;;;41.30;30.73;;;384.80;1766.40;;;;;;4840249;29;20060;-72
2024/02/17 11:22:42;;;;;;;40.42;29.83;;;409.70;1817.60;;;;;;4840140;29;20030;-75
2024/02/17 11:25:09;;;;;;;53.10;37.47;;;409.60;1792.00;;;;;;4841187;29;20038;-76
2024/02/17 11:27:37;;;;;;;57.95;41.20;;;384.90;1766.40;;;;;;4840850;29;20553;-74
2024/02/17 11:30:05;;;;;;;46.80;35.20;;;384.90;1766.40;;;;;;4839352;29;20366;-76
2024/02/17 11:32:31;;;;;;;60.08;40.17;;;384.90;1766.40;;;;;;4834187;29;20495;-76
2024/02/17 11:34:59;;;;;;;46.22;34.90;;;409.60;1792.00;;;;;;4840386;29;20045;-76
2024/02/17 11:37:27;;;;;;;48.53;36.05;;;409.60;1792.00;;;;;;4840689;29;20040;-77
2024/02/17 11:39:54;;;;;;;43.95;31.80;;;409.70;1792.00;;;;;;4824177;29;20042;-74
2024/02/17 11:42:22;;;;;;;40.53;29.13;;;409.80;1792.00;;;;;;4840056;29;20029;-76
2024/02/17 11:44:48;;;;;;;42.30;31.48;;;409.80;1766.40;;;;;;4839886;29;20036;-77
2024/02/17 11:47:14;;;;;;;43.83;32.15;;;409.80;1792.00;;;;;;4840569;29;20030;-80
2024/02/17 11:49:40;;;;;;;44.33;33.28;;;409.80;1792.00;;;;;;4823445;29;20038;-79
2024/02/17 11:52:07;;;;;;;45.03;29.30;;;409.90;1792.00;;;;;;4840234;29;20090;-80
2024/02/17 11:54:34;;;;;;;30.25;22.27;;;409.80;1792.00;;;;;;4839126;29;20061;-76
2024/02/17 11:57:02;;;;;;;29.38;21.15;;;409.70;1766.40;;;;;;4839954;29;20038;-73
2024/02/17 11:59:28;;;;;;;28.75;21.08;;;409.90;1792.00;;;;;;4839790;29;20044;-74
2024/02/17 12:02:00;;;;;;;30.00;21.35;;;410.00;1766.40;;;;;;4839997;29;20029;-74
2024/02/17 12:04:26;;;;;;;29.02;22.55;;;410.10;1766.40;;;;;;4840050;29;20021;-72